Henniker, NH

6:16 AM EDT on September 19, 2014 (GMT -0400)
Concord Municipal | Change Station
CLOSE
Current Station
Airport
Location: Concord,
Elevation: 344 ft
Nearby Weather Stations
Active Advisory: Frost Advisory

Elev 344 ft 43.20 °N, 71.50 °W | Updated 25 minutes ago

Clear
Clear
31 °F
Feels Like 31 °F
N
0
Wind Variable Wind from North

Today
High -- | Low -- °F
--% Chance of Precip.
Yesterday
High -- | Low -- °F
Precip. -- in
6:31 AM 6:50 PM
Waning Crescent, 20% visible
Pressure 30.32 in
Visibility 10.0 miles
Clouds Clear
Dew Point 30 °F
Humidity 96%
Rainfall 0.00 in
Snow Depth Not available.
UV 0 out of 12
Pollen 2.80 out of 12
Ozone Good
Flu Activity Not available.
METAR KCON 190951Z AUTO 00000KT 10SM CLR M01/M01 A3031 RMK AO2 SLP268 T10061011

More Conditions Fewer Conditions

Pressure 30.32 in
Visibility 10.0 miles
Clouds Clear
Dew Point 30 °F
Humidity 96%
Rainfall 0.00 in
Snow Depth Not available.
UV 0 out of 12
Pollen 2.80 out of 12
Ozone Good
Flu Activity Not available.
METAR KCON 190951Z AUTO 00000KT 10SM CLR M01/M01 A3031 RMK AO2 SLP268 T10061011

More Conditions Fewer Conditions

10-Day Weather Forecast

Almanac

Astronomy

Sep. 19, 2014 Rise Set
Actual Time 6:31 AM EDT 6:50 PM EDT
Civil Twilight 6:02 AM EDT 7:18 PM EDT
Nautical Twilight 5:29 AM EDT 7:51 PM EDT
Astronomical Twilight 4:54 AM EDT 8:26 PM EDT
Moon 2:08 AM EDT 4:21 PM EDT
Length of Visible Light 13h 15m
Length of Day
12h 18m
Tomorrow will be 2m 54s shorter.
Waning Crescent, 20% of the Moon is Illuminated
Today
Waning Crescent
Sep 24
New
Oct 1
First Quarter
Oct 8
Full
Oct 15
Last Quarter

Today's Extremes

State Highs State Lows

Community

WunderPhotos

Upload Photos

1,754,583 photos uploaded!

Nearby

Air Quality

  Air Quality AQ Index Pollutant
Yesterday Good
OZONE
Current Good
OZONE
Friday Good
PM2.5
Friday Good
OZONE

Snow Depth

Station Depth Elevation
No new snow has been reported.

Earthquake Activity

City Distance Mag. Time & Date
No recent earthquake activity has been reported nearby.
Minimum magnitude displayed is 2.5.

Coastal Water Temperatures

Place Temperature
No Stations Reporting

Nearby Weather Stations